sensor_id;sensor_type;location;lat;lon;timestamp;pressure;altitude;pressure_sealevel;temperature;humidity
61039;BME280;46919;45.816;3.104;2023-01-26T00:01:23;98416.81;;;0.41;100.00
61039;BME280;46919;45.816;3.104;2023-01-26T00:03:49;98415.69;;;0.44;100.00
61039;BME280;46919;45.816;3.104;2023-01-26T00:06:17;98407.84;;;0.42;100.00
61039;BME280;46919;45.816;3.104;2023-01-26T00:08:45;98408.41;;;0.46;100.00
61039;BME280;46919;45.816;3.104;2023-01-26T00:11:13;98399.75;;;0.44;100.00
61039;BME280;46919;45.816;3.104;2023-01-26T00:13:38;98393.28;;;0.46;100.00
61039;BME280;46919;45.816;3.104;2023-01-26T00:16:08;98400.56;;;0.44;100.00
61039;BME280;46919;45.816;3.104;2023-01-26T00:18:36;98392.59;;;0.44;100.00
61039;BME280;46919;45.816;3.104;2023-01-26T00:21:02;98397.22;;;0.42;100.00
61039;BME280;46919;45.816;3.104;2023-01-26T00:23:31;98393.03;;;0.40;100.00
61039;BME280;46919;45.816;3.104;2023-01-26T00:25:57;98391.22;;;0.40;100.00
61039;BME280;46919;45.816;3.104;2023-01-26T00:28:22;98381.19;;;0.34;100.00
61039;BME280;46919;45.816;3.104;2023-01-26T00:30:48;98382.84;;;0.35;100.00
61039;BME280;46919;45.816;3.104;2023-01-26T00:33:14;98383.00;;;0.33;100.00
61039;BME280;46919;45.816;3.104;2023-01-26T00:35:40;98383.00;;;0.33;100.00
61039;BME280;46919;45.816;3.104;2023-01-26T00:38:10;98387.47;;;0.33;100.00
61039;BME280;46919;45.816;3.104;2023-01-26T00:40:36;98382.44;;;0.30;100.00
61039;BME280;46919;45.816;3.104;2023-01-26T00:43:02;98380.78;;;0.29;100.00
61039;BME280;46919;45.816;3.104;2023-01-26T00:45:27;98372.81;;;0.29;100.00
61039;BME280;46919;45.816;3.104;2023-01-26T00:47:52;98376.75;;;0.25;100.00
61039;BME280;46919;45.816;3.104;2023-01-26T00:50:18;98374.06;;;0.25;100.00
61039;BME280;46919;45.816;3.104;2023-01-26T00:52:43;98374.63;;;0.28;100.00
61039;BME280;46919;45.816;3.104;2023-01-26T00:55:09;98372.81;;;0.29;100.00
61039;BME280;46919;45.816;3.104;2023-01-26T00:57:34;98378.13;;;0.29;100.00
61039;BME280;46919;45.816;3.104;2023-01-26T00:59:59;98377.72;;;0.24;100.00
61039;BME280;46919;45.816;3.104;2023-01-26T01:02:25;98367.94;;;0.24;100.00
61039;BME280;46919;45.816;3.104;2023-01-26T01:04:50;98372.41;;;0.24;100.00
61039;BME280;46919;45.816;3.104;2023-01-26T01:07:16;98366.53;;;0.20;100.00
61039;BME280;46919;45.816;3.104;2023-01-26T01:09:41;98364.41;;;0.24;100.00
61039;BME280;46919;45.816;3.104;2023-01-26T01:12:07;98371.72;;;0.22;100.00
61039;BME280;46919;45.816;3.104;2023-01-26T01:14:32;98367.38;;;0.21;100.00
61039;BME280;46919;45.816;3.104;2023-01-26T01:16:58;98362.06;;;0.21;100.00
61039;BME280;46919;45.816;3.104;2023-01-26T01:19:23;98362.06;;;0.21;100.00
61039;BME280;46919;45.816;3.104;2023-01-26T01:21:49;98364.28;;;0.25;100.00
61039;BME280;46919;45.816;3.104;2023-01-26T01:24:14;98361.75;;;0.24;100.00
61039;BME280;46919;45.816;3.104;2023-01-26T01:26:40;98362.75;;;0.23;100.00
61039;BME280;46919;45.816;3.104;2023-01-26T01:29:06;98356.44;;;0.24;100.00
61039;BME280;46919;45.816;3.104;2023-01-26T01:31:32;98348.75;;;0.21;100.00
61039;BME280;46919;45.816;3.104;2023-01-26T01:33:57;98355.75;;;0.22;100.00
61039;BME280;46919;45.816;3.104;2023-01-26T01:36:23;98355.63;;;0.23;100.00
61039;BME280;46919;45.816;3.104;2023-01-26T01:38:49;98351.13;;;0.24;100.00
61039;BME280;46919;45.816;3.104;2023-01-26T01:41:17;98356.59;;;0.22;100.00
61039;BME280;46919;45.816;3.104;2023-01-26T01:43:44;98359.41;;;0.21;100.00
61039;BME280;46919;45.816;3.104;2023-01-26T01:46:18;98360.41;;;0.20;100.00
61039;BME280;46919;45.816;3.104;2023-01-26T01:48:52;98359.53;;;0.19;100.00
61039;BME280;46919;45.816;3.104;2023-01-26T01:51:30;98360.41;;;0.20;100.00
61039;BME280;46919;45.816;3.104;2023-01-26T01:54:02;98363.06;;;0.20;100.00
61039;BME280;46919;45.816;3.104;2023-01-26T01:56:29;98360.41;;;0.20;100.00
61039;BME280;46919;45.816;3.104;2023-01-26T01:58:58;98363.22;;;0.18;100.00
61039;BME280;46919;45.816;3.104;2023-01-26T02:01:24;98353.09;;;0.22;100.00
61039;BME280;46919;45.816;3.104;2023-01-26T02:03:53;98357.75;;;0.20;100.00
61039;BME280;46919;45.816;3.104;2023-01-26T02:06:25;98353.69;;;0.15;100.00
61039;BME280;46919;45.816;3.104;2023-01-26T02:08:54;98359.00;;;0.15;100.00
61039;BME280;46919;45.816;3.104;2023-01-26T02:13:55;98352.28;;;0.21;100.00
61039;BME280;46919;45.816;3.104;2023-01-26T02:16:22;98349.78;;;0.20;100.00
61039;BME280;46919;45.816;3.104;2023-01-26T02:18:47;98345.56;;;0.17;100.00
61039;BME280;46919;45.816;3.104;2023-01-26T02:21:16;98345.88;;;0.14;100.00
61039;BME280;46919;45.816;3.104;2023-01-26T02:26:55;98337.78;;;0.06;100.00
61039;BME280;46919;45.816;3.104;2023-01-26T02:29:21;98335.53;;;0.11;100.00
61039;BME280;46919;45.816;3.104;2023-01-26T02:31:47;98327.03;;;0.07;100.00
61039;BME280;46919;45.816;3.104;2023-01-26T02:34:13;98331.50;;;0.07;100.00
61039;BME280;46919;45.816;3.104;2023-01-26T02:36:38;98326.50;;;0.04;100.00
61039;BME280;46919;45.816;3.104;2023-01-26T02:39:43;98321.84;;;0.06;100.00
61039;BME280;46919;45.816;3.104;2023-01-26T02:42:10;98317.66;;;0.03;100.00
61039;BME280;46919;45.816;3.104;2023-01-26T02:45:10;98316.69;;;0.04;100.00
61039;BME280;46919;45.816;3.104;2023-01-26T02:47:36;98311.81;;;-0.01;100.00
61039;BME280;46919;45.816;3.104;2023-01-26T02:50:02;98305.97;;;-0.04;100.00
61039;BME280;46919;45.816;3.104;2023-01-26T02:52:29;98312.97;;;-0.03;100.00
61039;BME280;46919;45.816;3.104;2023-01-26T02:54:57;98307.06;;;-0.07;100.00
61039;BME280;46919;45.816;3.104;2023-01-26T02:57:41;98301.63;;;-0.05;100.00
61039;BME280;46919;45.816;3.104;2023-01-26T03:00:10;98307.66;;;-0.03;100.00
61039;BME280;46919;45.816;3.104;2023-01-26T03:02:35;98300.66;;;-0.04;100.00
61039;BME280;46919;45.816;3.104;2023-01-26T03:05:01;98302.31;;;-0.03;100.00
61039;BME280;46919;45.816;3.104;2023-01-26T03:07:29;98293.88;;;0.02;100.00
61039;BME280;46919;45.816;3.104;2023-01-26T03:09:54;98296.00;;;-0.02;100.00
61039;BME280;46919;45.816;3.104;2023-01-26T03:12:19;98290.00;;;-0.04;100.00
61039;BME280;46919;45.816;3.104;2023-01-26T03:14:45;98288.34;;;-0.05;100.00
61039;BME280;46919;45.816;3.104;2023-01-26T03:17:10;98285.72;;;-0.15;100.00
61039;BME280;46919;45.816;3.104;2023-01-26T03:19:35;98285.72;;;-0.15;100.00
61039;BME280;46919;45.816;3.104;2023-01-26T03:22:19;98275.25;;;-0.16;100.00
61039;BME280;46919;45.816;3.104;2023-01-26T03:25:04;98264.63;;;-0.16;100.00
61039;BME280;46919;45.816;3.104;2023-01-26T03:27:48;98268.97;;;-0.15;100.00
61039;BME280;46919;45.816;3.104;2023-01-26T03:30:16;98264.31;;;-0.13;100.00
61039;BME280;46919;45.816;3.104;2023-01-26T03:32:42;98264.19;;;-0.12;100.00
61039;BME280;46919;45.816;3.104;2023-01-26T03:35:08;98272.81;;;-0.10;100.00
61039;BME280;46919;45.816;3.104;2023-01-26T03:37:40;98265.00;;;-0.11;100.00
61039;BME280;46919;45.816;3.104;2023-01-26T03:40:08;98263.34;;;-0.12;100.00
61039;BME280;46919;45.816;3.104;2023-01-26T03:42:53;98267.97;;;-0.14;100.00
61039;BME280;46919;45.816;3.104;2023-01-26T03:45:37;98266.00;;;-0.12;100.00
61039;BME280;46919;45.816;3.104;2023-01-26T03:48:20;98261.81;;;-0.15;100.00
61039;BME280;46919;45.816;3.104;2023-01-26T03:51:04;98254.00;;;-0.16;100.00
61039;BME280;46919;45.816;3.104;2023-01-26T03:53:48;98260.47;;;-0.19;100.00
61039;BME280;46919;45.816;3.104;2023-01-26T03:56:32;98256.94;;;-0.20;100.00
61039;BME280;46919;45.816;3.104;2023-01-26T03:59:00;98257.94;;;-0.21;100.00
61039;BME280;46919;45.816;3.104;2023-01-26T04:01:36;98259.91;;;-0.23;100.00
61039;BME280;46919;45.816;3.104;2023-01-26T04:04:03;98255.59;;;-0.24;100.00
61039;BME280;46919;45.816;3.104;2023-01-26T04:06:48;98260.91;;;-0.24;100.00
61039;BME280;46919;45.816;3.104;2023-01-26T04:09:33;98245.63;;;-0.22;100.00
61039;BME280;46919;45.816;3.104;2023-01-26T04:12:00;98253.31;;;-0.19;100.00
61039;BME280;46919;45.816;3.104;2023-01-26T04:14:25;98242.69;;;-0.19;100.00
61039;BME280;46919;45.816;3.104;2023-01-26T04:17:10;98248.16;;;-0.20;100.00
61039;BME280;46919;45.816;3.104;2023-01-26T04:19:56;98236.44;;;-0.27;100.00
61039;BME280;46919;45.816;3.104;2023-01-26T04:22:40;98236.72;;;-0.30;100.00
61039;BME280;46919;45.816;3.104;2023-01-26T04:25:14;98243.75;;;-0.39;100.00
61039;BME280;46919;45.816;3.104;2023-01-26T04:27:40;98230.34;;;-0.38;100.00
61039;BME280;46919;45.816;3.104;2023-01-26T04:30:08;98231.03;;;-0.35;100.00
61039;BME280;46919;45.816;3.104;2023-01-26T04:32:33;98237.00;;;-0.33;100.00
61039;BME280;46919;45.816;3.104;2023-01-26T04:34:59;98234.78;;;-0.28;100.00
61039;BME280;46919;45.816;3.104;2023-01-26T04:37:24;98228.59;;;-0.29;100.00
61039;BME280;46919;45.816;3.104;2023-01-26T04:39:50;98225.13;;;-0.29;100.00
61039;BME280;46919;45.816;3.104;2023-01-26T04:42:15;98226.66;;;-0.27;100.00
61039;BME280;46919;45.816;3.104;2023-01-26T04:44:41;98235.44;;;-0.26;100.00
61039;BME280;46919;45.816;3.104;2023-01-26T04:47:06;98230.28;;;-0.28;100.00
61039;BME280;46919;45.816;3.104;2023-01-26T04:49:31;98226.94;;;-0.30;100.00
61039;BME280;46919;45.816;3.104;2023-01-26T04:51:57;98223.28;;;-0.29;100.00
61039;BME280;46919;45.816;3.104;2023-01-26T04:54:22;98230.56;;;-0.31;100.00
61039;BME280;46919;45.816;3.104;2023-01-26T04:56:48;98230.56;;;-0.31;100.00
61039;BME280;46919;45.816;3.104;2023-01-26T04:59:13;98235.06;;;-0.31;100.00
61039;BME280;46919;45.816;3.104;2023-01-26T05:01:40;98232.25;;;-0.30;100.00
61039;BME280;46919;45.816;3.104;2023-01-26T05:04:06;98220.63;;;-0.29;100.00
61039;BME280;46919;45.816;3.104;2023-01-26T05:06:32;98229.03;;;-0.33;100.00
61039;BME280;46919;45.816;3.104;2023-01-26T05:08:58;98223.34;;;-0.39;100.00
61039;BME280;46919;45.816;3.104;2023-01-26T05:11:23;98228.13;;;-0.42;100.00
61039;BME280;46919;45.816;3.104;2023-01-26T05:13:49;98219.19;;;-0.41;100.00
61039;BME280;46919;45.816;3.104;2023-01-26T05:16:14;98214.84;;;-0.42;100.00
61039;BME280;46919;45.816;3.104;2023-01-26T05:18:40;98214.56;;;-0.39;100.00
61039;BME280;46919;45.816;3.104;2023-01-26T05:21:07;98215.38;;;-0.39;100.00
61039;BME280;46919;45.816;3.104;2023-01-26T05:23:32;98208.28;;;-0.38;100.00
61039;BME280;46919;45.816;3.104;2023-01-26T05:25:58;98211.22;;;-0.41;100.00
61039;BME280;46919;45.816;3.104;2023-01-26T05:28:23;98211.06;;;-0.40;100.00
61039;BME280;46919;45.816;3.104;2023-01-26T05:30:49;98208.13;;;-0.46;100.00
61039;BME280;46919;45.816;3.104;2023-01-26T05:33:14;98211.38;;;-0.43;100.00
61039;BME280;46919;45.816;3.104;2023-01-26T05:35:40;98220.00;;;-0.41;100.00
61039;BME280;46919;45.816;3.104;2023-01-26T05:38:06;98209.63;;;-0.34;100.00
61039;BME280;46919;45.816;3.104;2023-01-26T05:40:32;98215.22;;;-0.37;100.00
61039;BME280;46919;45.816;3.104;2023-01-26T05:42:57;98207.03;;;-0.44;100.00
61039;BME280;46919;45.816;3.104;2023-01-26T05:45:23;98208.84;;;-0.44;100.00
61039;BME280;46919;45.816;3.104;2023-01-26T05:47:48;98203.13;;;-0.49;100.00
61039;BME280;46919;45.816;3.104;2023-01-26T05:50:14;98208.56;;;-0.51;100.00
61039;BME280;46919;45.816;3.104;2023-01-26T05:52:41;98212.78;;;-0.48;100.00
61039;BME280;46919;45.816;3.104;2023-01-26T05:55:07;98202.44;;;-0.51;100.00
61039;BME280;46919;45.816;3.104;2023-01-26T05:57:32;98208.44;;;-0.49;100.00
61039;BME280;46919;45.816;3.104;2023-01-26T05:59:58;98204.41;;;-0.53;100.00
61039;BME280;46919;45.816;3.104;2023-01-26T06:02:23;98202.72;;;-0.55;100.00
61039;BME280;46919;45.816;3.104;2023-01-26T06:04:51;98209.00;;;-0.56;100.00
61039;BME280;46919;45.816;3.104;2023-01-26T06:07:17;98197.13;;;-0.51;100.00
61039;BME280;46919;45.816;3.104;2023-01-26T06:09:42;98193.25;;;-0.57;100.00
61039;BME280;46919;45.816;3.104;2023-01-26T06:12:13;98191.03;;;-0.62;100.00
61039;BME280;46919;45.816;3.104;2023-01-26T06:14:40;98198.16;;;-0.62;100.00
61039;BME280;46919;45.816;3.104;2023-01-26T06:17:05;98193.56;;;-0.60;100.00
61039;BME280;46919;45.816;3.104;2023-01-26T06:19:31;98197.03;;;-0.60;100.00
61039;BME280;46919;45.816;3.104;2023-01-26T06:21:56;98196.06;;;-0.59;100.00
61039;BME280;46919;45.816;3.104;2023-01-26T06:24:21;98196.06;;;-0.59;100.00
61039;BME280;46919;45.816;3.104;2023-01-26T06:26:48;98191.59;;;-0.58;100.00
61039;BME280;46919;45.816;3.104;2023-01-26T06:29:14;98192.56;;;-0.59;100.00
61039;BME280;46919;45.816;3.104;2023-01-26T06:31:39;98197.41;;;-0.55;100.00
61039;BME280;46919;45.816;3.104;2023-01-26T06:34:05;98191.81;;;-0.51;100.00
61039;BME280;46919;45.816;3.104;2023-01-26T06:36:31;98193.09;;;-0.56;100.00
61039;BME280;46919;45.816;3.104;2023-01-26T06:38:57;98187.38;;;-0.61;100.00
61039;BME280;46919;45.816;3.104;2023-01-26T06:41:22;98192.69;;;-0.61;100.00
61039;BME280;46919;45.816;3.104;2023-01-26T06:43:48;98187.09;;;-0.58;100.00
61039;BME280;46919;45.816;3.104;2023-01-26T06:46:14;98190.75;;;-0.59;100.00
61039;BME280;46919;45.816;3.104;2023-01-26T06:48:40;98194.38;;;-0.60;100.00
61039;BME280;46919;45.816;3.104;2023-01-26T06:53:54;98190.44;;;-0.56;100.00
61039;BME280;46919;45.816;3.104;2023-01-26T06:56:21;98193.56;;;-0.60;100.00
61039;BME280;46919;45.816;3.104;2023-01-26T06:58:47;98191.03;;;-0.62;100.00
61039;BME280;46919;45.816;3.104;2023-01-26T07:03:41;98188.38;;;-0.62;100.00
61039;BME280;46919;45.816;3.104;2023-01-26T07:06:07;98188.81;;;-0.66;100.00
61039;BME280;46919;45.816;3.104;2023-01-26T07:08:35;98187.97;;;-0.67;100.00
61039;BME280;46919;45.816;3.104;2023-01-26T07:11:01;98190.63;;;-0.67;100.00
61039;BME280;46919;45.816;3.104;2023-01-26T07:13:26;98187.97;;;-0.67;100.00
61039;BME280;46919;45.816;3.104;2023-01-26T07:16:01;98191.63;;;-0.68;100.00
61039;BME280;46919;45.816;3.104;2023-01-26T07:18:27;98193.00;;;-0.64;100.00
61039;BME280;46919;45.816;3.104;2023-01-26T07:20:53;98197.75;;;-0.67;100.00
61039;BME280;46919;45.816;3.104;2023-01-26T07:23:18;98191.63;;;-0.68;100.00
61039;BME280;46919;45.816;3.104;2023-01-26T07:25:44;98193.84;;;-0.63;100.00
61039;BME280;46919;45.816;3.104;2023-01-26T07:28:09;98186.41;;;-0.60;100.00
61039;BME280;46919;45.816;3.104;2023-01-26T07:30:35;98188.09;;;-0.59;100.00
61039;BME280;46919;45.816;3.104;2023-01-26T07:33:01;98189.75;;;-0.58;100.00
61039;BME280;46919;45.816;3.104;2023-01-26T07:35:27;98194.09;;;-0.57;100.00
61039;BME280;46919;45.816;3.104;2023-01-26T07:37:54;98188.50;;;-0.53;100.00
61039;BME280;46919;45.816;3.104;2023-01-26T07:40:19;98196.84;;;-0.48;100.00
61039;BME280;46919;45.816;3.104;2023-01-26T07:42:45;98193.91;;;-0.45;100.00
61039;BME280;46919;45.816;3.104;2023-01-26T07:45:11;98193.06;;;-0.46;100.00
61039;BME280;46919;45.816;3.104;2023-01-26T07:47:36;98190.41;;;-0.46;100.00
61039;BME280;46919;45.816;3.104;2023-01-26T07:50:02;98199.63;;;-0.50;100.00
61039;BME280;46919;45.816;3.104;2023-01-26T07:52:27;98197.81;;;-0.49;100.00
61039;BME280;46919;45.816;3.104;2023-01-26T07:54:53;98197.97;;;-0.51;100.00
61039;BME280;46919;45.816;3.104;2023-01-26T07:57:18;98197.81;;;-0.49;100.00
61039;BME280;46919;45.816;3.104;2023-01-26T07:59:44;98199.19;;;-0.45;100.00
61039;BME280;46919;45.816;3.104;2023-01-26T08:02:09;98203.53;;;-0.44;100.00
61039;BME280;46919;45.816;3.104;2023-01-26T08:04:34;98207.69;;;-0.42;100.00
61039;BME280;46919;45.816;3.104;2023-01-26T08:07:00;98201.03;;;-0.46;100.00
61039;BME280;46919;45.816;3.104;2023-01-26T08:09:25;98205.47;;;-0.46;100.00
61039;BME280;46919;45.816;3.104;2023-01-26T08:11:51;98197.53;;;-0.46;100.00
61039;BME280;46919;45.816;3.104;2023-01-26T08:14:16;98201.84;;;-0.45;100.00
61039;BME280;46919;45.816;3.104;2023-01-26T08:16:42;98201.56;;;-0.42;100.00
61039;BME280;46919;45.816;3.104;2023-01-26T08:19:09;98199.88;;;-0.43;100.00
61039;BME280;46919;45.816;3.104;2023-01-26T08:21:34;98201.41;;;-0.41;100.00
61039;BME280;46919;45.816;3.104;2023-01-26T08:24:00;98195.53;;;-0.34;100.00
61039;BME280;46919;45.816;3.104;2023-01-26T08:26:27;98204.31;;;-0.34;100.00
61039;BME280;46919;45.816;3.104;2023-01-26T08:28:53;98203.50;;;-0.34;100.00
61039;BME280;46919;45.816;3.104;2023-01-26T08:31:19;98200.69;;;-0.33;100.00
61039;BME280;46919;45.816;3.104;2023-01-26T08:33:49;98196.50;;;-0.35;100.00
61039;BME280;46919;45.816;3.104;2023-01-26T08:36:16;98193.09;;;-0.28;100.00
61039;BME280;46919;45.816;3.104;2023-01-26T08:38:43;98192.13;;;-0.27;100.00
61039;BME280;46919;45.816;3.104;2023-01-26T08:41:09;98190.16;;;-0.25;100.00
61039;BME280;46919;45.816;3.104;2023-01-26T08:43:35;98189.47;;;-0.27;100.00
61039;BME280;46919;45.816;3.104;2023-01-26T08:46:00;98186.97;;;-0.28;100.00
61039;BME280;46919;45.816;3.104;2023-01-26T08:48:26;98187.78;;;-0.28;100.00
61039;BME280;46919;45.816;3.104;2023-01-26T08:50:57;98191.41;;;-0.29;100.00
61039;BME280;46919;45.816;3.104;2023-01-26T08:53:23;98194.94;;;-0.28;100.00
61039;BME280;46919;45.816;3.104;2023-01-26T08:55:48;98195.63;;;-0.26;100.00
61039;BME280;46919;45.816;3.104;2023-01-26T08:58:14;98192.81;;;-0.25;100.00
61039;BME280;46919;45.816;3.104;2023-01-26T09:00:40;98201.44;;;-0.23;100.00
61039;BME280;46919;45.816;3.104;2023-01-26T09:03:06;98196.53;;;-0.17;100.00
61039;BME280;46919;45.816;3.104;2023-01-26T09:05:35;98204.34;;;-0.16;100.00
61039;BME280;46919;45.816;3.104;2023-01-26T09:08:02;98210.22;;;-0.12;100.00
61039;BME280;46919;45.816;3.104;2023-01-26T09:10:28;98211.19;;;-0.13;100.00
61039;BME280;46919;45.816;3.104;2023-01-26T09:12:53;98208.91;;;-0.08;100.00
61039;BME280;46919;45.816;3.104;2023-01-26T09:15:19;98214.53;;;-0.11;100.00
61039;BME280;46919;45.816;3.104;2023-01-26T09:17:47;98209.81;;;-0.17;100.00
61039;BME280;46919;45.816;3.104;2023-01-26T09:20:13;98214.28;;;-0.18;100.00
61039;BME280;46919;45.816;3.104;2023-01-26T09:22:38;98212.47;;;-0.17;100.00
61039;BME280;46919;45.816;3.104;2023-01-26T09:25:04;98204.50;;;-0.17;100.00
61039;BME280;46919;45.816;3.104;2023-01-26T09:27:30;98212.72;;;-0.11;100.00
61039;BME280;46919;45.816;3.104;2023-01-26T09:29:55;98205.97;;;-0.05;100.00
61039;BME280;46919;45.816;3.104;2023-01-26T09:32:21;98208.78;;;-0.07;100.00
61039;BME280;46919;45.816;3.104;2023-01-26T09:34:47;98199.69;;;-0.04;100.00
61039;BME280;46919;45.816;3.104;2023-01-26T09:37:13;98200.66;;;-0.05;100.00
61039;BME280;46919;45.816;3.104;2023-01-26T09:39:38;98203.00;;;-0.02;100.00
61039;BME280;46919;45.816;3.104;2023-01-26T09:42:38;98204.69;;;-0.01;100.00
61039;BME280;46919;45.816;3.104;2023-01-26T09:50:13;98209.03;;;0.00;100.00
61039;BME280;46919;45.816;3.104;2023-01-26T09:55:16;98208.09;;;-0.09;100.00
61039;BME280;46919;45.816;3.104;2023-01-26T09:57:57;98213.63;;;-0.02;100.00
61039;BME280;46919;45.816;3.104;2023-01-26T10:00:38;98216.34;;;0.16;100.00
61039;BME280;46919;45.816;3.104;2023-01-26T10:08:32;98227.94;;;0.15;100.00
61039;BME280;46919;45.816;3.104;2023-01-26T10:11:01;98232.44;;;0.14;100.00
61039;BME280;46919;45.816;3.104;2023-01-26T10:13:28;98229.63;;;0.16;100.00
61039;BME280;46919;45.816;3.104;2023-01-26T10:16:00;98227.78;;;0.16;99.71
61039;BME280;46919;45.816;3.104;2023-01-26T10:18:39;98228.91;;;0.14;97.80
61039;BME280;46919;45.816;3.104;2023-01-26T10:21:08;98233.09;;;0.16;96.88
61039;BME280;46919;45.816;3.104;2023-01-26T10:23:34;98236.81;;;0.24;97.16
61039;BME280;46919;45.816;3.104;2023-01-26T10:26:13;98231.91;;;0.29;96.65
61039;BME280;46919;45.816;3.104;2023-01-26T10:28:41;98227.56;;;0.28;96.80
61039;BME280;46919;45.816;3.104;2023-01-26T10:31:13;98221.59;;;0.26;95.93
61039;BME280;46919;45.816;3.104;2023-01-26T10:33:47;98226.44;;;0.30;96.55
61039;BME280;46919;45.816;3.104;2023-01-26T10:36:13;98225.22;;;0.25;95.91
61039;BME280;46919;45.816;3.104;2023-01-26T10:38:41;98220.88;;;0.24;95.71
61039;BME280;46919;45.816;3.104;2023-01-26T10:43:49;98221.97;;;0.31;96.16
61039;BME280;46919;45.816;3.104;2023-01-26T10:46:41;98213.97;;;0.31;96.33
61039;BME280;46919;45.816;3.104;2023-01-26T10:51:33;98213.16;;;0.30;96.86
61039;BME280;46919;45.816;3.104;2023-01-26T10:54:29;98206.81;;;0.31;95.79
61039;BME280;46919;45.816;3.104;2023-01-26T10:56:56;98201.44;;;0.41;96.49
61039;BME280;46919;45.816;3.104;2023-01-26T10:59:37;98191.72;;;0.50;96.14
61039;BME280;46919;45.816;3.104;2023-01-26T11:04:37;98191.31;;;0.63;96.48
61039;BME280;46919;45.816;3.104;2023-01-26T11:07:27;98199.34;;;0.71;95.85
61039;BME280;46919;45.816;3.104;2023-01-26T11:09:53;98194.75;;;0.73;95.38
61039;BME280;46919;45.816;3.104;2023-01-26T11:12:20;98201.75;;;0.82;94.86
61039;BME280;46919;45.816;3.104;2023-01-26T11:15:00;98191.75;;;0.76;94.95
61039;BME280;46919;45.816;3.104;2023-01-26T11:17:37;98195.34;;;0.67;94.39
61039;BME280;46919;45.816;3.104;2023-01-26T11:28:38;98191.94;;;0.57;93.13
61039;BME280;46919;45.816;3.104;2023-01-26T11:34:04;98192.94;;;0.56;93.45
61039;BME280;46919;45.816;3.104;2023-01-26T11:45:20;98181.84;;;0.42;92.33
61039;BME280;46919;45.816;3.104;2023-01-26T11:48:12;98183.69;;;0.42;92.65
61039;BME280;46919;45.816;3.104;2023-01-26T11:50:56;98187.47;;;0.39;93.12
61039;BME280;46919;45.816;3.104;2023-01-26T11:53:42;98181.31;;;0.39;93.96
61039;BME280;46919;45.816;3.104;2023-01-26T11:58:48;98180.25;;;0.49;93.63
61039;BME280;46919;45.816;3.104;2023-01-26T12:01:38;98182.97;;;0.40;93.99
61039;BME280;46919;45.816;3.104;2023-01-26T12:04:13;98174.09;;;0.31;94.14
61039;BME280;46919;45.816;3.104;2023-01-26T12:06:44;98174.94;;;0.13;95.00
61039;BME280;46919;45.816;3.104;2023-01-26T12:09:21;98175.47;;;-0.01;95.32
61039;BME280;46919;45.816;3.104;2023-01-26T12:12:09;98173.25;;;-0.06;95.99
61039;BME280;46919;45.816;3.104;2023-01-26T12:14:53;98178.19;;;0.07;96.06
61039;BME280;46919;45.816;3.104;2023-01-26T12:17:58;98174.13;;;0.13;95.62
61039;BME280;46919;45.816;3.104;2023-01-26T12:20:41;98173.72;;;0.08;95.10
61039;BME280;46919;45.816;3.104;2023-01-26T12:23:15;98168.16;;;0.01;96.24
61039;BME280;46919;45.816;3.104;2023-01-26T12:25:52;98163.53;;;0.03;95.62
61039;BME280;46919;45.816;3.104;2023-01-26T12:31:03;98161.94;;;-0.08;96.31
61039;BME280;46919;45.816;3.104;2023-01-26T12:33:31;98167.88;;;0.04;96.13
61039;BME280;46919;45.816;3.104;2023-01-26T12:42:00;98145.91;;;0.38;95.78
61039;BME280;46919;45.816;3.104;2023-01-26T12:44:41;98142.19;;;0.31;95.33
61039;BME280;46919;45.816;3.104;2023-01-26T12:50:05;98138.94;;;0.19;96.64
61039;BME280;46919;45.816;3.104;2023-01-26T12:52:40;98140.53;;;0.12;96.59
61039;BME280;46919;45.816;3.104;2023-01-26T12:55:23;98129.38;;;0.08;96.41
61039;BME280;46919;45.816;3.104;2023-01-26T12:57:56;98123.47;;;0.14;96.39
61039;BME280;46919;45.816;3.104;2023-01-26T13:00:26;98128.22;;;0.11;96.53
61039;BME280;46919;45.816;3.104;2023-01-26T13:05:31;98124.50;;;0.22;96.27
61039;BME280;46919;45.816;3.104;2023-01-26T13:07:58;98127.84;;;0.24;95.33
61039;BME280;46919;45.816;3.104;2023-01-26T13:10:48;98128.59;;;0.34;95.17
61039;BME280;46919;45.816;3.104;2023-01-26T13:15:42;98126.31;;;0.39;95.18
61039;BME280;46919;45.816;3.104;2023-01-26T13:18:12;98123.91;;;0.28;94.89
61039;BME280;46919;45.816;3.104;2023-01-26T13:20:48;98126.19;;;0.23;94.83
61039;BME280;46919;45.816;3.104;2023-01-26T13:26:16;98110.78;;;0.08;94.96
61039;BME280;46919;45.816;3.104;2023-01-26T13:28:43;98107.28;;;0.08;94.76
61039;BME280;46919;45.816;3.104;2023-01-26T13:31:10;98108.66;;;0.12;94.26
61039;BME280;46919;45.816;3.104;2023-01-26T13:33:36;98107.13;;;0.09;94.13
61039;BME280;46919;45.816;3.104;2023-01-26T13:36:03;98102.81;;;0.08;94.11
61039;BME280;46919;45.816;3.104;2023-01-26T13:38:37;98107.66;;;-0.05;93.95
61039;BME280;46919;45.816;3.104;2023-01-26T13:41:08;98104.84;;;-0.04;93.89
61039;BME280;46919;45.816;3.104;2023-01-26T13:43:39;98099.47;;;-0.12;93.68
61039;BME280;46919;45.816;3.104;2023-01-26T13:46:13;98098.34;;;-0.09;94.79
61039;BME280;46919;45.816;3.104;2023-01-26T13:48:42;98095.84;;;-0.11;94.72
61039;BME280;46919;45.816;3.104;2023-01-26T13:51:16;98101.91;;;-0.19;94.76
61039;BME280;46919;45.816;3.104;2023-01-26T13:53:46;98104.56;;;-0.19;95.16
61039;BME280;46919;45.816;3.104;2023-01-26T13:56:20;98099.47;;;-0.30;94.84
61039;BME280;46919;45.816;3.104;2023-01-26T13:58:46;98110.53;;;-0.34;95.90
61039;BME280;46919;45.816;3.104;2023-01-26T14:01:12;98108.56;;;-0.32;95.46
61039;BME280;46919;45.816;3.104;2023-01-26T14:03:38;98117.13;;;-0.39;94.81
61039;BME280;46919;45.816;3.104;2023-01-26T14:06:18;98120.63;;;-0.38;95.38
61039;BME280;46919;45.816;3.104;2023-01-26T14:08:50;98121.00;;;-0.33;94.25
61039;BME280;46919;45.816;3.104;2023-01-26T14:11:21;98123.91;;;-0.26;94.92
61039;BME280;46919;45.816;3.104;2023-01-26T14:13:53;98111.00;;;-0.21;94.04
61039;BME280;46919;45.816;3.104;2023-01-26T14:16:27;98111.63;;;-0.09;93.65
61039;BME280;46919;45.816;3.104;2023-01-26T14:21:45;98111.81;;;0.15;93.30
61039;BME280;46919;45.816;3.104;2023-01-26T14:24:10;98111.88;;;0.24;93.25
61039;BME280;46919;45.816;3.104;2023-01-26T14:26:36;98112.66;;;0.34;93.62